Time;durP1;ratioP1;P1;durP2;ratioP2;P2;SDS_P1;SDS_P2;PMS_P1;PMS_P2;Temp;Humidity;BMP_temperature;BMP_pressure;BME280_temperature;BME280_humidity;BME280_pressure;Samples;Min_cycle;Max_cycle;Signal;HPM_P1;HPM_P2
2022/03/11 00:01:24;;;;;;;13.43;10.10;;;;;;;1.78;60.91;100529.84;5075202;28;20442;-78
2022/03/11 00:03:52;;;;;;;11.37;10.37;;;;;;;1.71;58.19;100535.66;5074666;28;20996;-78
2022/03/11 00:06:18;;;;;;;11.37;9.60;;;;;;;1.80;58.31;100533.16;5075074;28;20464;-78
2022/03/11 00:08:45;;;;;;;10.07;9.07;;;;;;;1.84;60.13;100537.22;5075377;28;20499;-78
2022/03/11 00:11:12;;;;;;;9.37;8.37;;;;;;;1.85;61.45;100536.31;5074501;28;21001;-79
2022/03/11 00:13:38;;;;;;;9.13;8.23;;;;;;;1.93;60.56;100536.56;5075070;28;20434;-78
2022/03/11 00:16:05;;;;;;;16.87;9.17;;;;;;;1.99;60.88;100535.22;5075013;28;20449;-78
2022/03/11 00:18:32;;;;;;;9.77;8.33;;;;;;;2.01;60.70;100539.44;5074730;28;20550;-77
2022/03/11 00:21:00;;;;;;;21.40;8.70;;;;;;;2.09;60.18;100531.81;5075187;28;20827;-77
2022/03/11 00:23:28;;;;;;;9.77;8.87;;;;;;;2.12;59.77;100528.13;5074576;28;20441;-77
2022/03/11 00:25:55;;;;;;;9.10;8.23;;;;;;;2.20;58.58;100539.69;5074872;28;20481;-77
2022/03/11 00:28:21;;;;;;;11.63;7.87;;;;;;;2.24;58.69;100535.88;5074493;28;20446;-77
2022/03/11 00:30:48;;;;;;;14.27;8.40;;;;;;;2.27;58.92;100532.19;5074461;28;20976;-77
2022/03/11 00:33:15;;;;;;;9.20;8.17;;;;;;;2.25;58.47;100536.72;5075130;28;20890;-77
2022/03/11 00:35:42;;;;;;;9.33;8.03;;;;;;;2.28;57.63;100537.31;5074737;28;20442;-77
2022/03/11 00:38:10;;;;;;;8.63;7.73;;;;;;;2.29;57.35;100538.97;5074554;28;20442;-76
2022/03/11 00:40:37;;;;;;;8.30;7.57;;;;;;;2.31;57.27;100533.59;5074122;28;21023;-76
2022/03/11 00:43:04;;;;;;;8.23;7.47;;;;;;;2.33;57.06;100537.78;5074236;28;20475;-77
2022/03/11 00:45:30;;;;;;;9.33;8.50;;;;;;;2.34;55.97;100534.22;5074365;28;20796;-77
2022/03/11 00:47:57;;;;;;;8.53;7.73;;;;;;;2.32;56.66;100535.31;5073841;28;20468;-77
2022/03/11 00:50:24;;;;;;;8.53;7.83;;;;;;;2.22;55.15;100537.78;5073814;28;20945;-77
2022/03/11 00:52:51;;;;;;;8.07;7.37;;;;;;;2.16;55.28;100535.63;5074676;28;20434;-77
2022/03/11 00:55:19;;;;;;;10.53;9.43;;;;;;;2.13;55.45;100535.88;5074334;28;20441;-77
2022/03/11 00:57:46;;;;;;;10.70;9.57;;;;;;;2.12;55.74;100542.06;5074009;28;21023;-79
2022/03/11 01:00:14;;;;;;;10.23;8.50;;;;;;;2.15;55.88;100541.81;5073660;28;20899;-78
2022/03/11 01:02:41;;;;;;;9.97;9.17;;;;;;;2.12;55.83;100547.28;5073010;28;20962;-78
2022/03/11 01:05:08;;;;;;;15.03;9.43;;;;;;;2.10;56.89;100537.88;5074150;28;20477;-77
2022/03/11 01:07:35;;;;;;;8.50;7.70;;;;;;;1.90;55.26;100539.41;5073853;28;20491;-78
2022/03/11 01:10:03;;;;;;;8.03;7.43;;;;;;;1.72;55.85;100548.63;5073681;28;20448;-77
2022/03/11 01:12:31;;;;;;;7.33;6.73;;;;;;;1.60;55.83;100533.84;5073604;28;20468;-77
2022/03/11 01:14:58;;;;;;;8.57;7.80;;;;;;;1.61;56.05;100548.59;5073632;28;20504;-78
2022/03/11 01:17:25;;;;;;;11.17;8.13;;;;;;;1.53;55.83;100539.63;5073801;28;20438;-77
2022/03/11 01:19:51;;;;;;;6.63;6.03;;;;;;;1.26;55.85;100545.13;5074562;28;20845;-78
2022/03/11 01:22:18;;;;;;;7.23;6.73;;;;;;;1.19;56.86;100543.91;5073543;28;20446;-78
2022/03/11 01:24:45;;;;;;;5.80;5.40;;;;;;;1.04;56.60;100537.16;5073538;28;20484;-78
2022/03/11 01:27:12;;;;;;;6.40;6.00;;;;;;;1.18;57.08;100536.97;5073378;28;20503;-78
2022/03/11 01:29:40;;;;;;;5.80;5.40;;;;;;;1.21;56.80;100531.53;5074077;28;20799;-78
2022/03/11 01:32:07;;;;;;;6.10;5.60;;;;;;;1.23;56.82;100539.28;5073521;28;20440;-78
2022/03/11 01:34:34;;;;;;;7.57;5.50;;;;;;;1.03;56.58;100543.34;5073205;28;20500;-78
2022/03/11 01:37:01;;;;;;;6.23;5.83;;;;;;;1.10;57.02;100547.16;5073536;28;20505;-78
2022/03/11 01:39:28;;;;;;;6.83;6.33;;;;;;;0.99;57.46;100546.28;5072756;28;21071;-78
2022/03/11 01:41:54;;;;;;;6.03;5.53;;;;;;;0.94;59.07;100549.22;5073615;28;20436;-78
2022/03/11 01:44:22;;;;;;;6.90;6.33;;;;;;;0.71;61.16;100542.19;5073037;28;20439;-78
2022/03/11 01:46:50;;;;;;;6.23;5.83;;;;;;;0.68;62.25;100544.16;5073561;28;20485;-78
2022/03/11 01:49:17;;;;;;;6.30;5.73;;;;;;;0.69;62.02;100544.06;5073271;28;20437;-79
2022/03/11 01:51:44;;;;;;;5.53;5.23;;;;;;;0.48;63.61;100540.34;5072691;28;20866;-78
2022/03/11 01:54:11;;;;;;;5.27;4.97;;;;;;;0.41;65.08;100539.13;5072690;28;20438;-78
2022/03/11 01:56:39;;;;;;;5.27;4.97;;;;;;;0.20;66.22;100530.13;5072471;28;20450;-78
2022/03/11 01:59:07;;;;;;;5.90;5.50;;;;;;;0.22;66.95;100533.47;5072412;28;21054;-79
2022/03/11 02:01:35;;;;;;;6.27;5.77;;;;;;;0.20;67.14;100537.94;5072984;28;20442;-79
2022/03/11 02:04:03;;;;;;;5.80;5.43;;;;;;;0.05;67.19;100533.81;5072710;28;20520;-78
2022/03/11 02:06:30;;;;;;;5.47;5.07;;;;;;;-0.11;67.79;100538.38;5073905;28;20500;-79
2022/03/11 02:08:58;;;;;;;5.53;5.13;;;;;;;-0.28;69.14;100536.06;5072616;28;20442;-79
2022/03/11 02:11:25;;;;;;;6.40;6.00;;;;;;;-0.26;69.63;100547.22;5072635;28;20820;-79
2022/03/11 02:13:53;;;;;;;6.70;6.23;;;;;;;-0.25;69.95;100544.53;5072742;28;20438;-79
2022/03/11 02:16:23;;;;;;;6.73;6.23;;;;;;;-0.30;69.43;100540.53;5072925;28;20438;-79
2022/03/11 02:18:50;;;;;;;6.37;5.97;;;;;;;-0.14;69.00;100543.81;5071994;28;21009;-79
2022/03/11 02:21:21;;;;;;;6.83;6.40;;;;;;;-0.24;69.08;100529.72;5088948;28;20471;-80
2022/03/11 02:23:50;;;;;;;6.53;6.00;;;;;;;-0.12;69.05;100547.16;5092315;28;20433;-80
2022/03/11 02:26:19;;;;;;;6.93;6.43;;;;;;;-0.05;68.03;100546.63;5093894;28;20820;-80
2022/03/11 02:28:46;;;;;;;6.87;6.37;;;;;;;-0.10;68.43;100547.88;5093673;28;20441;-81
2022/03/11 02:31:13;;;;;;;7.90;7.30;;;;;;;-0.02;68.36;100553.44;5092851;28;20502;-80
2022/03/11 02:33:40;;;;;;;6.23;5.83;;;;;;;0.11;67.30;100556.88;5093016;28;20441;-79
2022/03/11 02:36:07;;;;;;;6.63;6.23;;;;;;;0.11;67.27;100556.88;5092500;28;20510;-79
2022/03/11 02:38:34;;;;;;;6.87;6.30;;;;;;;0.22;66.96;100553.53;5093337;28;20441;-79
2022/03/11 02:41:03;;;;;;;6.87;6.17;;;;;;;0.34;66.21;100556.16;5092084;28;20820;-79
2022/03/11 02:43:30;;;;;;;7.63;7.13;;;;;;;0.45;65.66;100569.28;5092419;28;20966;-80
2022/03/11 02:45:56;;;;;;;6.73;6.33;;;;;;;0.42;64.66;100553.84;5092580;28;20789;-79
2022/03/11 02:48:23;;;;;;;6.60;6.10;;;;;;;0.41;64.57;100575.69;5092216;28;20437;-80
2022/03/11 02:50:50;;;;;;;7.00;6.40;;;;;;;0.44;63.33;100574.66;5092468;28;20433;-79
2022/03/11 02:53:16;;;;;;;7.27;6.77;;;;;;;0.42;62.80;100576.50;5091954;28;20860;-78
2022/03/11 02:55:43;;;;;;;6.83;6.17;;;;;;;0.40;63.39;100574.00;5092884;28;20497;-79
2022/03/11 02:58:11;;;;;;;6.90;6.40;;;;;;;0.46;62.74;100568.38;5091932;28;20434;-80
2022/03/11 03:00:38;;;;;;;7.87;7.27;;;;;;;0.36;62.16;100556.84;5093105;28;20538;-80
2022/03/11 03:03:05;;;;;;;8.43;7.83;;;;;;;0.48;61.16;100570.88;5091890;28;20972;-79
2022/03/11 03:05:32;;;;;;;7.60;7.10;;;;;;;0.53;60.05;100574.81;5092742;28;20460;-79
2022/03/11 03:07:59;;;;;;;7.17;6.50;;;;;;;0.59;57.83;100569.19;5092600;28;20499;-79
2022/03/11 03:10:25;;;;;;;7.63;7.10;;;;;;;0.65;57.01;100573.16;5092125;28;20873;-80
2022/03/11 03:12:52;;;;;;;6.43;6.03;;;;;;;0.69;56.84;100585.88;5093387;28;20437;-80
2022/03/11 03:15:20;;;;;;;7.13;6.53;;;;;;;0.68;55.98;100585.97;5091983;28;20433;-79
2022/03/11 03:17:47;;;;;;;8.30;7.80;;;;;;;0.77;56.31;100583.56;5092158;28;20494;-79
2022/03/11 03:20:14;;;;;;;7.47;6.30;;;;;;;0.78;55.57;100589.66;5091904;28;20534;-78
2022/03/11 03:22:41;;;;;;;8.87;6.43;;;;;;;0.83;54.76;100580.53;5092105;28;20528;-78
2022/03/11 03:25:09;;;;;;;6.83;6.43;;;;;;;0.86;53.63;100588.16;5093595;28;20498;-77
2022/03/11 03:27:36;;;;;;;6.20;5.60;;;;;;;0.79;53.10;100594.78;5096606;28;20447;-77
2022/03/11 03:30:04;;;;;;;5.67;5.37;;;;;;;0.74;51.80;100602.09;5096476;28;20441;-77
2022/03/11 03:32:32;;;;;;;6.30;5.63;;;;;;;0.73;51.31;100592.56;5096403;28;20434;-77
2022/03/11 03:34:59;;;;;;;5.30;5.00;;;;;;;0.70;50.13;100598.03;5095810;28;20490;-77
2022/03/11 03:37:26;;;;;;;6.60;6.20;;;;;;;0.79;49.95;100605.22;5095475;28;20441;-77
2022/03/11 03:39:52;;;;;;;5.90;5.40;;;;;;;0.83;49.33;100604.06;5095978;28;20477;-79
2022/03/11 03:42:19;;;;;;;5.67;5.37;;;;;;;0.90;48.30;100599.25;5095606;28;20437;-78
2022/03/11 03:44:46;;;;;;;5.87;5.50;;;;;;;0.94;48.02;100604.13;5096573;28;20497;-78
2022/03/11 03:47:12;;;;;;;5.90;5.50;;;;;;;1.00;48.33;100606.34;5095520;28;20438;-78
2022/03/11 03:49:40;;;;;;;5.63;5.13;;;;;;;1.07;47.91;100612.81;5095214;28;20872;-78
2022/03/11 03:52:12;;;;;;;6.20;5.80;;;;;;;1.09;46.89;100604.81;5096334;28;20452;-78
2022/03/11 03:54:39;;;;;;;5.47;4.67;;;;;;;1.04;46.57;100613.03;5094922;28;20913;-78
2022/03/11 03:57:06;;;;;;;5.80;5.43;;;;;;;1.03;47.72;100611.34;5095843;28;20494;-78
2022/03/11 03:59:33;;;;;;;6.43;5.97;;;;;;;1.09;48.08;100608.28;5095269;28;20557;-76
2022/03/11 04:01:59;;;;;;;5.70;5.40;;;;;;;1.12;48.05;100604.63;5095298;28;20433;-76
2022/03/11 04:04:26;;;;;;;5.97;5.57;;;;;;;1.14;48.21;100603.56;5094816;28;20473;-77
2022/03/11 04:06:54;;;;;;;11.37;7.33;;;;;;;1.17;48.98;100608.56;5095208;28;20433;-77
2022/03/11 04:09:21;;;;;;;5.17;4.87;;;;;;;1.18;47.96;100609.44;5095410;28;20439;-76
2022/03/11 04:11:48;;;;;;;11.07;8.17;;;;;;;0.89;49.36;100608.84;5095028;28;20441;-75
2022/03/11 04:14:14;;;;;;;8.10;7.37;;;;;;;0.79;49.65;100607.84;5095235;28;20441;-77
2022/03/11 04:16:41;;;;;;;5.87;5.47;;;;;;;0.78;49.92;100611.41;5095094;28;20953;-78
2022/03/11 04:19:08;;;;;;;7.27;6.67;;;;;;;0.64;49.77;100608.91;5094959;28;20514;-77
2022/03/11 04:21:35;;;;;;;10.77;8.63;;;;;;;0.58;50.49;100619.78;5094967;28;20439;-77
2022/03/11 04:24:12;;;;;;;10.77;9.67;;;;;;;0.21;52.13;100617.16;5095170;28;20516;-77
2022/03/11 04:26:39;;;;;;;8.67;6.57;;;;;;;0.27;52.63;100621.97;5096160;28;20433;-78
2022/03/11 04:29:06;;;;;;;5.93;5.43;;;;;;;0.28;53.43;100618.44;5094831;28;20787;-77
2022/03/11 04:31:33;;;;;;;5.90;5.50;;;;;;;0.37;53.65;100626.50;5095042;28;20499;-76
2022/03/11 04:34:00;;;;;;;9.20;5.90;;;;;;;0.34;53.84;100620.63;5095473;28;20498;-77
2022/03/11 04:36:28;;;;;;;5.97;5.47;;;;;;;0.26;55.01;100626.38;5094419;28;20453;-77
2022/03/11 04:38:55;;;;;;;5.80;5.40;;;;;;;0.16;56.07;100625.31;5094542;28;20955;-78
2022/03/11 04:41:23;;;;;;;6.43;5.93;;;;;;;-0.07;57.80;100620.78;5095445;28;20473;-80
2022/03/11 04:43:50;;;;;;;13.50;6.53;;;;;;;-0.08;59.80;100629.56;5094208;28;20890;-79
2022/03/11 04:46:17;;;;;;;6.37;5.97;;;;;;;-0.29;62.78;100628.34;5095442;28;20437;-80
2022/03/11 04:48:47;;;;;;;6.10;5.70;;;;;;;-0.49;64.44;100621.00;5094580;28;20506;-80
2022/03/11 04:51:14;;;;;;;6.83;6.33;;;;;;;-0.42;64.90;100619.63;5093766;28;20975;-80
2022/03/11 04:53:40;;;;;;;6.73;6.30;;;;;;;-0.34;64.93;100627.81;5094222;28;21030;-79
2022/03/11 04:56:07;;;;;;;7.97;7.20;;;;;;;-0.42;64.62;100620.50;5094178;28;20562;-78
2022/03/11 04:58:35;;;;;;;8.07;7.47;;;;;;;-0.36;64.86;100619.25;5094026;28;21019;-77
2022/03/11 05:01:02;;;;;;;7.13;6.60;;;;;;;-0.23;65.11;100625.34;5094818;28;20473;-78
2022/03/11 05:03:28;;;;;;;6.60;6.10;;;;;;;-0.11;63.39;100624.53;5094175;28;20497;-77
2022/03/11 05:05:55;;;;;;;6.90;6.37;;;;;;;-0.01;63.85;100615.16;5094831;28;20473;-77
2022/03/11 05:08:22;;;;;;;6.93;6.23;;;;;;;0.08;61.57;100622.38;5093929;28;20438;-78
2022/03/11 05:10:49;;;;;;;6.83;6.27;;;;;;;0.18;61.39;100631.28;5094359;28;20803;-76
2022/03/11 05:13:15;;;;;;;7.13;6.53;;;;;;;0.30;61.63;100630.44;5093820;28;20518;-76
2022/03/11 05:15:44;;;;;;;7.00;6.30;;;;;;;0.40;60.76;100639.31;5094764;28;20437;-75
2022/03/11 05:18:11;;;;;;;7.83;7.00;;;;;;;0.51;60.58;100630.75;5093712;28;20442;-76
2022/03/11 05:20:37;;;;;;;11.37;6.47;;;;;;;0.54;59.55;100644.47;5094172;28;20477;-75
2022/03/11 05:23:04;;;;;;;7.67;7.07;;;;;;;0.59;59.67;100641.53;5093360;28;21025;-76
2022/03/11 05:25:31;;;;;;;6.77;6.33;;;;;;;0.69;59.69;100648.63;5093844;28;20470;-74
2022/03/11 05:27:58;;;;;;;6.70;6.20;;;;;;;0.72;58.47;100643.19;5093673;28;20440;-74
2022/03/11 05:30:25;;;;;;;7.20;6.70;;;;;;;0.69;59.95;100655.66;5093424;28;20449;-75
2022/03/11 05:32:53;;;;;;;6.47;6.07;;;;;;;0.73;59.58;100654.50;5094678;28;20433;-76
2022/03/11 05:35:20;;;;;;;7.07;6.37;;;;;;;0.74;58.64;100661.41;5092885;28;20867;-74
2022/03/11 05:37:46;;;;;;;7.53;5.63;;;;;;;0.78;58.76;100662.84;5093132;28;20449;-79
2022/03/11 05:40:13;;;;;;;10.37;6.47;;;;;;;0.90;58.67;100662.00;5093056;28;20488;-75
2022/03/11 05:42:41;;;;;;;7.37;6.80;;;;;;;1.02;58.19;100655.94;5093113;28;20439;-76
2022/03/11 05:45:09;;;;;;;8.00;7.23;;;;;;;1.08;58.00;100656.31;5092531;28;20509;-76
2022/03/11 05:47:35;;;;;;;7.50;6.30;;;;;;;1.13;57.22;100653.38;5092013;28;20793;-77
2022/03/11 05:50:04;;;;;;;8.90;6.47;;;;;;;1.21;57.38;100651.06;5091259;28;20434;-77
2022/03/11 05:52:31;;;;;;;7.40;6.80;;;;;;;1.00;57.26;100652.56;5091521;28;20469;-78
2022/03/11 05:54:57;;;;;;;7.23;6.63;;;;;;;0.96;57.36;100662.41;5092271;28;20513;-79
2022/03/11 05:57:24;;;;;;;12.93;6.47;;;;;;;1.09;57.66;100667.59;5092473;28;20433;-77
2022/03/11 05:59:51;;;;;;;7.93;7.30;;;;;;;1.10;57.71;100657.03;5092508;28;20498;-76
2022/03/11 06:02:17;;;;;;;7.97;7.27;;;;;;;1.14;59.07;100661.13;5092592;28;20948;-74
2022/03/11 06:04:44;;;;;;;7.93;7.10;;;;;;;1.13;59.60;100662.06;5090783;28;20477;-74
2022/03/11 06:07:12;;;;;;;8.67;7.13;;;;;;;1.07;59.23;100665.13;5092694;28;20444;-74
2022/03/11 06:09:39;;;;;;;7.00;6.33;;;;;;;1.10;58.99;100658.84;5092949;28;20495;-75
2022/03/11 06:12:07;;;;;;;8.77;7.87;;;;;;;1.19;58.36;100674.72;5093515;28;20831;-75
2022/03/11 06:14:34;;;;;;;9.27;7.63;;;;;;;1.26;57.28;100675.94;5092527;28;20502;-76
2022/03/11 06:17:01;;;;;;;6.40;5.83;;;;;;;1.36;57.04;100679.59;5092425;28;20462;-74
2022/03/11 06:19:27;;;;;;;7.57;7.03;;;;;;;1.45;57.24;100675.47;5092236;28;20449;-74
2022/03/11 06:21:55;;;;;;;6.83;6.33;;;;;;;1.34;57.06;100684.09;5092297;28;20485;-74
2022/03/11 06:24:23;;;;;;;7.20;6.60;;;;;;;1.33;57.78;100682.44;5093888;28;20524;-74
2022/03/11 06:26:50;;;;;;;9.97;7.20;;;;;;;1.42;57.78;100676.53;5092316;28;20435;-74
2022/03/11 06:29:16;;;;;;;7.27;6.63;;;;;;;1.60;58.22;100680.47;5092901;28;20437;-74
2022/03/11 06:31:43;;;;;;;7.50;7.00;;;;;;;1.73;57.13;100699.59;5090094;28;20427;-73
2022/03/11 06:34:10;;;;;;;9.90;6.20;;;;;;;1.84;55.40;100702.25;5081210;28;20462;-74
2022/03/11 06:36:37;;;;;;;7.57;6.87;;;;;;;1.79;55.65;100683.41;5079272;28;20502;-75
2022/03/11 06:39:04;;;;;;;8.93;8.13;;;;;;;1.68;56.38;100704.31;5092416;28;20441;-74
2022/03/11 06:41:32;;;;;;;8.37;6.07;;;;;;;1.90;55.71;100698.34;5079797;28;20474;-75
2022/03/11 06:43:58;;;;;;;8.73;7.83;;;;;;;2.05;54.78;100711.19;5071993;28;20442;-74
2022/03/11 06:46:25;;;;;;;8.27;7.67;;;;;;;2.20;55.36;100712.66;5071834;28;20430;-74
2022/03/11 06:48:52;;;;;;;8.50;7.70;;;;;;;2.48;53.50;100707.03;5074321;28;20867;-74
2022/03/11 06:51:19;;;;;;;7.77;6.90;;;;;;;2.45;54.44;100707.25;5091967;28;20924;-74
2022/03/11 06:53:45;;;;;;;9.40;8.10;;;;;;;2.58;53.90;100712.41;5092311;28;20433;-74
2022/03/11 06:56:12;;;;;;;12.60;7.63;;;;;;;2.01;54.44;100714.97;5091873;28;20944;-75
2022/03/11 06:58:40;;;;;;;7.53;6.90;;;;;;;2.20;54.00;100714.47;5091211;28;20445;-75
2022/03/11 07:01:07;;;;;;;11.33;7.23;;;;;;;2.60;54.94;100718.38;5096057;28;20481;-75
2022/03/11 07:03:33;;;;;;;7.50;6.90;;;;;;;3.00;53.53;100715.22;5094788;28;20825;-73
2022/03/11 07:06:00;;;;;;;7.33;6.67;;;;;;;3.28;52.38;100724.41;5093304;28;20500;-75
2022/03/11 07:08:28;;;;;;;7.47;6.67;;;;;;;3.62;50.37;100718.16;5075658;28;20507;-75
2022/03/11 07:10:56;;;;;;;6.77;6.20;;;;;;;3.96;49.07;100728.47;5079084;28;20476;-75
2022/03/11 07:13:22;;;;;;;7.20;5.57;;;;;;;3.72;49.38;100704.16;5096222;28;20510;-74
2022/03/11 07:15:50;;;;;;;7.30;5.83;;;;;;;4.28;47.71;100723.22;5096255;28;20948;-76
2022/03/11 07:18:17;;;;;;;9.97;7.00;;;;;;;4.78;46.07;100722.50;5096150;28;20433;-74
2022/03/11 07:20:44;;;;;;;5.87;5.47;;;;;;;5.13;45.07;100726.44;5096951;28;20541;-75
2022/03/11 07:23:11;;;;;;;7.07;5.60;;;;;;;5.73;43.51;100722.91;5095913;28;20437;-74
2022/03/11 07:25:38;;;;;;;6.10;5.50;;;;;;;5.97;41.62;100726.03;5096705;28;20437;-74
2022/03/11 07:28:05;;;;;;;13.33;6.17;;;;;;;6.05;40.97;100727.97;5095892;28;20226;-74
2022/03/11 07:30:32;;;;;;;7.03;6.43;;;;;;;6.27;40.68;100727.72;5096084;28;20210;-75
2022/03/11 07:33:01;;;;;;;7.47;6.27;;;;;;;6.60;38.72;100733.41;5095614;28;20731;-74
2022/03/11 07:35:28;;;;;;;5.70;5.27;;;;;;;6.99;38.10;100731.53;5095945;28;20204;-74
2022/03/11 07:37:54;;;;;;;9.60;6.07;;;;;;;7.28;37.99;100733.13;5095740;28;20195;-76
2022/03/11 07:40:22;;;;;;;7.10;6.53;;;;;;;7.23;38.11;100726.59;5090591;28;20659;-75
2022/03/11 07:42:48;;;;;;;14.63;7.00;;;;;;;6.96;39.30;100722.09;5075292;28;20202;-77
2022/03/11 07:45:17;;;;;;;7.87;7.10;;;;;;;6.99;38.53;100724.44;5075092;28;20732;-75
2022/03/11 07:47:44;;;;;;;7.50;6.67;;;;;;;6.91;38.24;100723.47;5075413;28;20197;-74
2022/03/11 07:50:13;;;;;;;10.97;8.70;;;;;;;6.13;39.41;100726.34;5075529;28;20193;-74
2022/03/11 07:52:41;;;;;;;8.13;7.40;;;;;;;5.93;39.81;100723.78;5074629;28;20196;-74
2022/03/11 07:55:10;;;;;;;8.27;6.50;;;;;;;5.79;40.29;100717.91;5075067;28;20203;-75
2022/03/11 07:57:37;;;;;;;6.97;6.43;;;;;;;5.93;39.59;100729.06;5075459;28;20196;-77
2022/03/11 08:00:06;;;;;;;8.83;7.03;;;;;;;5.64;40.82;100721.09;5075097;28;20241;-76
2022/03/11 08:02:34;;;;;;;10.30;7.73;;;;;;;5.70;41.17;100729.28;5074622;28;20227;-75
2022/03/11 08:05:01;;;;;;;8.43;7.73;;;;;;;5.70;40.51;100724.00;5093910;28;20230;-75
2022/03/11 08:07:29;;;;;;;8.67;7.87;;;;;;;5.44;40.46;100722.78;5095140;28;20203;-76
2022/03/11 08:09:56;;;;;;;12.80;11.47;;;;;;;5.08;41.58;100736.53;5094931;27;20199;-76
2022/03/11 08:12:23;;;;;;;9.70;8.70;;;;;;;4.49;42.53;100727.56;5094556;28;20195;-76
2022/03/11 08:14:50;;;;;;;9.20;8.23;;;;;;;4.11;43.79;100732.50;5094452;27;20286;-75
2022/03/11 08:17:17;;;;;;;17.57;7.70;;;;;;;4.15;43.72;100727.81;5095208;28;20230;-75
2022/03/11 08:19:44;;;;;;;11.67;7.77;;;;;;;4.40;42.69;100720.44;5090751;28;20254;-77
2022/03/11 08:22:12;;;;;;;11.73;8.27;;;;;;;4.46;43.79;100724.34;5075533;28;20760;-76
2022/03/11 08:24:40;;;;;;;13.50;8.40;;;;;;;4.67;43.79;100715.50;5079060;28;20441;-78
2022/03/11 08:27:08;;;;;;;10.43;8.83;;;;;;;4.86;41.74;100720.88;5094832;28;20535;-78
2022/03/11 08:29:36;;;;;;;9.73;8.73;;;;;;;4.76;42.43;100720.00;5094878;28;20199;-76
2022/03/11 08:32:03;;;;;;;10.90;10.00;;;;;;;4.64;42.13;100728.91;5095507;28;20203;-76
2022/03/11 08:34:30;;;;;;;15.17;8.80;;;;;;;4.30;42.19;100727.38;5094326;28;20581;-78
2022/03/11 08:36:57;;;;;;;11.90;8.07;;;;;;;3.91;43.38;100716.66;5087289;28;20202;-76
2022/03/11 08:39:24;;;;;;;7.83;7.13;;;;;;;3.76;44.74;100726.63;5073791;28;20515;-77
2022/03/11 08:41:52;;;;;;;7.00;6.50;;;;;;;3.92;43.75;100721.81;5091507;28;20469;-78
2022/03/11 08:44:18;;;;;;;8.77;7.10;;;;;;;4.05;44.22;100722.47;5094110;28;20903;-75
2022/03/11 08:46:45;;;;;;;7.73;7.13;;;;;;;4.55;42.88;100713.91;5094485;28;20433;-78
2022/03/11 08:49:12;;;;;;;8.93;7.70;;;;;;;4.83;43.18;100712.41;5094045;28;20437;-77
2022/03/11 08:51:39;;;;;;;7.27;6.40;;;;;;;4.87;39.72;100716.44;5092981;28;20195;-77
2022/03/11 08:54:05;;;;;;;7.83;7.23;;;;;;;4.86;41.15;100707.72;5093989;28;20195;-79
2022/03/11 08:56:32;;;;;;;6.77;6.20;;;;;;;4.88;40.67;100707.59;5094342;28;20187;-79
2022/03/11 08:59:00;;;;;;;6.70;6.30;;;;;;;4.99;40.34;100713.59;5093839;28;20655;-79
2022/03/11 09:01:27;;;;;;;6.63;6.13;;;;;;;4.91;39.18;100716.03;5094361;28;20527;-79
2022/03/11 09:03:54;;;;;;;70.77;29.20;;;;;;;5.03;40.78;100712.38;5084537;28;20227;-79
2022/03/11 09:06:21;;;;;;;14.43;9.40;;;;;;;4.79;40.91;100703.09;5073487;28;20676;-79
2022/03/11 09:08:47;;;;;;;7.30;6.80;;;;;;;4.70;40.68;100704.69;5086399;28;20222;-79
2022/03/11 09:11:15;;;;;;;6.50;6.00;;;;;;;4.32;41.23;100712.34;5086577;28;21014;-78
2022/03/11 09:13:43;;;;;;;21.87;8.53;;;;;;;4.12;41.69;100697.34;5074192;28;20200;-78
2022/03/11 09:16:11;;;;;;;6.47;5.77;;;;;;;4.47;40.56;100704.97;5073563;28;20195;-78
2022/03/11 09:18:38;;;;;;;6.43;5.93;;;;;;;4.60;41.28;100703.81;5073343;28;20740;-77
2022/03/11 09:21:04;;;;;;;13.50;6.30;;;;;;;5.01;40.63;100700.31;5073515;28;20245;-79
2022/03/11 09:23:31;;;;;;;8.83;6.30;;;;;;;5.05;39.63;100697.28;5072682;28;20200;-78
2022/03/11 09:25:58;;;;;;;6.67;6.27;;;;;;;4.94;39.49;100675.44;5073330;28;20191;-78
2022/03/11 09:28:24;;;;;;;7.13;6.47;;;;;;;5.20;40.47;100688.03;5073388;28;20241;-78
2022/03/11 09:30:51;;;;;;;6.53;5.97;;;;;;;5.58;40.63;100692.63;5072948;28;20579;-79
2022/03/11 09:33:19;;;;;;;7.00;6.40;;;;;;;5.41;39.54;100690.63;5072978;28;20196;-80
2022/03/11 09:35:46;;;;;;;8.43;7.40;;;;;;;5.35;39.71;100702.53;5072941;28;20196;-79
2022/03/11 09:38:13;;;;;;;7.77;6.17;;;;;;;5.21;39.80;100695.00;5084320;28;20624;-78
2022/03/11 09:40:43;;;;;;;8.47;5.90;;;;;;;5.23;39.59;100693.06;5085310;28;20253;-79
2022/03/11 09:43:11;;;;;;;6.17;5.53;;;;;;;5.51;38.79;100691.47;5073370;28;20214;-75
2022/03/11 09:45:38;;;;;;;7.03;6.43;;;;;;;5.51;40.34;100678.31;5073185;28;20231;-76
2022/03/11 09:48:05;;;;;;;7.73;6.87;;;;;;;5.55;39.65;100688.44;5093181;28;20187;-77
2022/03/11 09:50:35;;;;;;;30.57;18.00;;;;;;;5.62;39.09;100683.47;5092678;28;20199;-77
2022/03/11 09:53:03;;;;;;;9.57;8.40;;;;;;;6.02;35.78;100691.31;5093513;28;20203;-77
2022/03/11 09:55:30;;;;;;;9.27;8.33;;;;;;;6.35;35.67;100683.00;5093377;28;20196;-77
2022/03/11 09:57:56;;;;;;;6.23;5.73;;;;;;;6.31;35.56;100678.97;5092837;28;20282;-77
2022/03/11 10:00:23;;;;;;;7.27;6.60;;;;;;;6.05;36.59;100677.88;5092889;28;20194;-79
2022/03/11 10:02:50;;;;;;;14.27;9.10;;;;;;;6.43;35.97;100676.06;5093410;28;20215;-79
2022/03/11 10:05:17;;;;;;;8.37;6.53;;;;;;;6.87;36.08;100674.56;5075882;28;20636;-77
2022/03/11 10:07:45;;;;;;;9.20;7.40;;;;;;;6.86;35.40;100678.19;5072680;28;20196;-77
2022/03/11 10:10:14;;;;;;;12.67;7.43;;;;;;;6.97;34.66;100681.47;5072104;28;20678;-77
2022/03/11 10:12:44;;;;;;;11.30;7.87;;;;;;;6.37;35.91;100659.94;5090928;28;20194;-78
2022/03/11 10:15:12;;;;;;;7.20;6.60;;;;;;;6.36;36.06;100660.94;5092336;28;20253;-77
2022/03/11 10:17:40;;;;;;;31.90;10.33;;;;;;;6.39;35.32;100673.81;5092386;28;20195;-75
2022/03/11 10:20:09;;;;;;;7.57;6.10;;;;;;;6.40;34.46;100664.97;5092552;28;20278;-76
2022/03/11 10:22:37;;;;;;;7.83;5.90;;;;;;;6.67;34.65;100652.66;5092887;28;20222;-77
2022/03/11 10:25:13;;;;;;;6.73;6.10;;;;;;;6.92;40.43;100652.03;5092539;28;20248;-78
2022/03/11 10:27:54;;;;;;;6.07;5.50;;;;;;;6.80;33.21;100665.53;5093132;28;20186;-79
2022/03/11 10:30:21;;;;;;;33.97;24.37;;;;;;;6.78;35.00;100656.94;5092761;28;20270;-78
2022/03/11 10:32:51;;;;;;;6.20;5.90;;;;;;;6.67;34.24;100651.81;5093060;28;20199;-75
2022/03/11 10:35:19;;;;;;;7.23;6.53;;;;;;;6.63;35.87;100645.16;5091793;28;20200;-77
2022/03/11 10:38:00;;;;;;;6.67;6.17;;;;;;;6.74;36.17;100650.28;5092190;28;20292;-75
2022/03/11 10:40:29;;;;;;;9.00;8.20;;;;;;;5.97;36.80;100643.44;5091794;28;20207;-75
2022/03/11 10:43:15;;;;;;;9.10;7.20;;;;;;;5.59;37.25;100637.13;5092475;28;20222;-78
2022/03/11 10:45:53;;;;;;;27.90;7.77;;;;;;;5.36;37.98;100633.06;5092147;28;20817;-77
2022/03/11 10:48:41;;;;;;;18.03;8.13;;;;;;;5.11;38.81;100617.75;5092785;28;20240;-75
2022/03/11 10:51:10;;;;;;;12.77;7.43;;;;;;;4.83;38.50;100620.28;5072025;28;20223;-76
2022/03/11 10:53:40;;;;;;;6.57;6.07;;;;;;;4.91;38.53;100616.00;5072126;28;20188;-76
2022/03/11 10:56:09;;;;;;;6.67;5.93;;;;;;;5.16;37.74;100618.16;5071921;28;20199;-78
2022/03/11 10:58:36;;;;;;;5.97;5.57;;;;;;;5.59;36.95;100602.88;5072017;28;20672;-76
2022/03/11 11:01:03;;;;;;;5.43;4.93;;;;;;;6.16;34.46;100620.53;5071833;28;20195;-76
2022/03/11 11:03:32;;;;;;;5.67;5.17;;;;;;;6.71;32.95;100616.25;5071365;28;20687;-77
2022/03/11 11:05:59;;;;;;;6.07;5.63;;;;;;;6.99;32.82;100605.59;5071948;28;20678;-76
2022/03/11 11:08:27;;;;;;;13.13;6.67;;;;;;;7.09;32.50;100590.50;5071867;28;20196;-77
2022/03/11 11:10:54;;;;;;;6.00;5.40;;;;;;;6.82;32.25;100584.38;5075316;28;20720;-77
2022/03/11 11:13:23;;;;;;;6.40;5.73;;;;;;;6.73;34.00;100572.88;5092481;28;20203;-78
2022/03/11 11:15:54;;;;;;;9.23;8.33;;;;;;;6.06;34.42;100576.66;5092184;28;20189;-77
2022/03/11 11:18:25;;;;;;;11.37;6.80;;;;;;;6.25;34.48;100577.47;5092207;28;20265;-78
2022/03/11 11:20:53;;;;;;;12.07;6.00;;;;;;;6.35;34.53;100578.28;5092615;28;20619;-79
2022/03/11 11:23:20;;;;;;;7.40;6.80;;;;;;;6.38;34.39;100571.91;5092671;28;20220;-80
2022/03/11 11:25:51;;;;;;;8.07;7.30;;;;;;;6.25;32.74;100566.09;5090309;28;20633;-78
2022/03/11 11:28:20;;;;;;;5.50;5.20;;;;;;;5.89;33.27;100570.31;5092165;28;20245;-80
2022/03/11 11:30:52;;;;;;;5.37;5.07;;;;;;;5.68;34.17;100554.59;5091584;28;20655;-81
2022/03/11 11:33:19;;;;;;;6.37;5.87;;;;;;;5.87;34.73;100560.88;5091955;28;20198;-80